Airfield :
LOGIN :

Register | Disclaimer

   EN    FR    IT 

 










Legend :    VFR   Marginal VFR   IFR   Intensive IFR   Very Intensive IFR
Visi :
Ceiling :
>= 8 km
>= 3000ft
5 to 8 km
1000 to 3000 ft
1500m to 5 km
500 to 1000 ft
800 to 1500m
200 to 500 ft
< 800m
< 200 ft
Symbols :   Thunderstorms  Fog  Heavy snow  Heavy precipitations  Wind > 20 kt
SIGMETs :     Misc.  Thunderstorms  Icing  Turbulence  Mountain Waves  Volcanic Ashes







- Airport Elevation : 245 ft
- IATA code : BIQ
- Download approach charts


LFBZ - Biarritz

CURRENT METAR :
  • 270830Z AUTO VRB03KT 9999 BKN016 OVC021 21/17 Q1009 TEMPO SHRA BKN040TCU

EXPIRED METARs :
  • 270800Z AUTO 28004KT 240V310 9999 SCT017 SCT028 BKN035 21/17 Q1009 NOSIG
  • 270730Z AUTO VRB03KT 9999 FEW029 BKN120 21/17 Q1009 NOSIG
  • 270700Z AUTO VRB03KT 9999 SCT032 BKN220 BKN240 21/17 Q1009 TEMPO BKN010
  • 270630Z AUTO VRB02KT 9999 OVC032 20/17 Q1009 TEMPO BKN010
  • 270600Z AUTO VRB01KT 9999 OVC028 19/17 Q1009 TEMPO BKN010

TAF TAF LFBZ
Valid from the 27 at 06:00 until the 28 at 06:00 UTC


270500Z 2706/2806 18005KT 9999 BKN015 BKN020
PROB40
TEMPO 2706/2708 BKN010
BECMG 2708/2710 32010KT
TEMPO 2710/2804 SHRA BKN040TCU
PROB40
TEMPO 2713/2716 30030G50KT 2000 TSRAGR BKN010 BKN020CB
BECMG 2718/2720 23005KT
No reported NOTAMs for that airfield.



MET'MAP, your aeronautical weather chart ! - Copyright ORBIFLY December 2007 - Disclaimer

ORBIFLY MET'MAP TEAM :

Programming & Development : Alexandra Zaïnal
Concept & Development : Baudouin d'Aumeries
Co-Development & Prog : Marc-Olivier Méhu
Technical & hardware support : Manuel Goepfert

Contact : metmap@orbifly.com




SOURCES & CREDITS :

   NOAA